Ms Signal — SFWL — position and weather

sailwx.info

Track history (hours):
 
Tides and Currents Weather Stations Pressure Air Temp Water Temp Dewpoint Dewpoint Depression Visibility Wind Speed Wind Dir Waves Ship Positions

Ms Signal

Last reported at 2016-Dec-06 06:25 UTC. Time now 2016-Dec-06 08:21 UTC.
Position N 59°20' E 018°13'.

Length 16 m.

Type: Diving. MMSI: 265648340.

Date/timePositionNaut miles runAvg speedWind from/ knotsBaromVisibWave heightAir tempDewpointWater temp
2016-Dec-06 06:25N 59°20' E 018°13'3 0.1
2016-Dec-05 10:17N 59°21' E 018°08'3 3.9
2016-Dec-05 09:33N 59°18' E 018°05'2 1.9
2016-Dec-05 08:30N 59°19' E 018°01'2 2.1
2016-Dec-05 07:33N 59°18' E 018°05'3 2.9
2016-Dec-05 06:34N 59°21' E 018°08'  
2016-Dec-01 11:33N 59°19' E 018°09'3 3.4
2016-Dec-01 10:33N 59°19' E 018°03'0 0.0
2016-Dec-01 09:33N 59°19' E 018°03'0 0.0
2016-Dec-01 08:30N 59°19' E 018°03'2 2.0
2016-Dec-01 07:33N 59°19' E 018°06'2 2.0
2016-Dec-01 06:33N 59°21' E 018°08'2 0.1
2016-Nov-30 14:34N 59°19' E 018°09'3 2.8
2016-Nov-30 13:33N 59°19' E 018°03'0 0.5
2016-Nov-30 12:33N 59°19' E 018°04'0 0.0
2016-Nov-30 11:33N 59°19' E 018°04'0 0.0
2016-Nov-30 10:32N 59°19' E 018°04'0 0.0
2016-Nov-30 09:33N 59°19' E 018°04'0 0.0
2016-Nov-30 08:32N 59°19' E 018°04'0 0.1
2016-Nov-30 07:33N 59°19' E 018°04'2 2.3
2016-Nov-30 06:33N 59°19' E 018°09'1 0.1
2016-Nov-29 13:33N 59°21' E 018°08'3 3.3
2016-Nov-29 12:33N 59°19' E 018°02'1 1.3
2016-Nov-29 11:32N 59°19' E 018°04'0 0.0
2016-Nov-29 10:33N 59°19' E 018°04'0 0.0
2016-Nov-29 09:33N 59°19' E 018°04'0 0.1
2016-Nov-29 08:31N 59°19' E 018°04'0 0.3
2016-Nov-29 07:33N 59°19' E 018°04'3 2.9
2016-Nov-29 06:33N 59°19' E 018°09'2 0.1
2016-Nov-28 13:17N 59°21' E 018°08'2 3.3
2016-Nov-28 12:33N 59°18' E 018°06'2 1.9
2016-Nov-28 11:30N 59°20' E 018°03'1 0.9
2016-Nov-28 10:32N 59°19' E 018°04'0 0.0
2016-Nov-28 09:32N 59°19' E 018°04'0 0.0
2016-Nov-28 08:31N 59°19' E 018°04'1 1.0
2016-Nov-28 07:33N 59°19' E 018°02'4 3.7
2016-Nov-28 06:33N 59°20' E 018°09'1 0.1
2016-Nov-27 06:11N 59°21' E 018°08'2 2.7
2016-Nov-27 05:32N 59°19' E 018°10'0 0.0
2016-Nov-26 16:33N 59°19' E 018°10'1 0.6
2016-Nov-26 15:30N 59°20' E 018°10'  
Track history (hours):
 
Tides and Currents Weather Stations Pressure Air Temp Water Temp Dewpoint Dewpoint Depression Visibility Wind Speed Wind Dir Waves Ship Positions

Ms Signal

Last reported at 2016-Dec-06 06:25 UTC. Time now 2016-Dec-06 08:21 UTC.
Position N 59°20' E 018°13'.

Length 16 m.

Type: Diving. MMSI: 265648340.

Date/timePositionNaut miles runAvg speedWind from/ knotsBaromVisibWave heightAir tempDewpointWater temp
2016-Dec-06 06:25N 59°20' E 018°13'3 0.1
2016-Dec-05 10:17N 59°21' E 018°08'3 3.9
2016-Dec-05 09:33N 59°18' E 018°05'2 1.9
2016-Dec-05 08:30N 59°19' E 018°01'2 2.1
2016-Dec-05 07:33N 59°18' E 018°05'3 2.9
2016-Dec-05 06:34N 59°21' E 018°08'  
2016-Dec-01 11:33N 59°19' E 018°09'3 3.4
2016-Dec-01 10:33N 59°19' E 018°03'0 0.0
2016-Dec-01 09:33N 59°19' E 018°03'0 0.0
2016-Dec-01 08:30N 59°19' E 018°03'2 2.0
2016-Dec-01 07:33N 59°19' E 018°06'2 2.0
2016-Dec-01 06:33N 59°21' E 018°08'2 0.1
2016-Nov-30 14:34N 59°19' E 018°09'3 2.8
2016-Nov-30 13:33N 59°19' E 018°03'0 0.5
2016-Nov-30 12:33N 59°19' E 018°04'0 0.0
2016-Nov-30 11:33N 59°19' E 018°04'0 0.0
2016-Nov-30 10:32N 59°19' E 018°04'0 0.0
2016-Nov-30 09:33N 59°19' E 018°04'0 0.0
2016-Nov-30 08:32N 59°19' E 018°04'0 0.1
2016-Nov-30 07:33N 59°19' E 018°04'2 2.3
2016-Nov-30 06:33N 59°19' E 018°09'1 0.1
2016-Nov-29 13:33N 59°21' E 018°08'3 3.3
2016-Nov-29 12:33N 59°19' E 018°02'1 1.3
2016-Nov-29 11:32N 59°19' E 018°04'0 0.0
2016-Nov-29 10:33N 59°19' E 018°04'0 0.0
2016-Nov-29 09:33N 59°19' E 018°04'0 0.1
2016-Nov-29 08:31N 59°19' E 018°04'0 0.3
2016-Nov-29 07:33N 59°19' E 018°04'3 2.9
2016-Nov-29 06:33N 59°19' E 018°09'2 0.1
2016-Nov-28 13:17N 59°21' E 018°08'2 3.3
2016-Nov-28 12:33N 59°18' E 018°06'2 1.9
2016-Nov-28 11:30N 59°20' E 018°03'1 0.9
2016-Nov-28 10:32N 59°19' E 018°04'0 0.0
2016-Nov-28 09:32N 59°19' E 018°04'0 0.0
2016-Nov-28 08:31N 59°19' E 018°04'1 1.0
2016-Nov-28 07:33N 59°19' E 018°02'4 3.7
2016-Nov-28 06:33N 59°20' E 018°09'1 0.1
2016-Nov-27 06:11N 59°21' E 018°08'2 2.7
2016-Nov-27 05:32N 59°19' E 018°10'0 0.0
2016-Nov-26 16:33N 59°19' E 018°10'1 0.6
2016-Nov-26 15:30N 59°20' E 018°10'  

Dump ship's entire track history